WetterOnline ( https://www.wetteronline.at )

Wetter aktuell Westerwald (in 500m)

Aktuelles Wetter: Bad Marienberg (555m)

6-stündlich | Neueste Meldungen
Ortszeit Temperatur Wetter
Mo, 06.07. 2:00 15.5° C bedeckt
So, 05.07. 20:00 20.2° C bewölkt
So, 05.07. 14:00 21.4° C wolkig
So, 05.07. 8:00 16.5° C bedeckt
So, 05.07. 2:00 15.6° C Regen
Sa, 04.07. 20:00 18.9° C bewölkt
Sa, 04.07. 14:00 18.5° C bedeckt
Sa, 04.07. 8:00 13.2° C bedeckt
Ortszeit Temperatur Wetter
Mo, 06.07. 5:00 10.6° C bewölkt
Mo, 06.07. 4:30 10.5° C leicht bewölkt
Mo, 06.07. 4:20 10.5° C leicht bewölkt
Mo, 06.07. 4:10 10.7° C wolkenlos
Mo, 06.07. 4:00 10.7° C wolkenlos
Mo, 06.07. 3:50 10.7° C wolkenlos
Mo, 06.07. 3:30 11.6° C leicht bewölkt
Mo, 06.07. 3:00 12.5° C wolkig
Mo, 06.07. 2:30 13.7° C bewölkt
Mo, 06.07. 2:00 15.5° C bedeckt
Mo, 06.07. 1:30 15.8° C wolkig
Ortszeit Relative Feuchte Sichtweite
Mo, 06.07. 2:00 79% 60 km
So, 05.07. 20:00 69% 65 km
So, 05.07. 14:00 64% 45 km
So, 05.07. 8:00 89% 55 km
So, 05.07. 2:00 97% 2.8 km
Sa, 04.07. 20:00 62% >70 km
Sa, 04.07. 14:00 58% 35 km
Sa, 04.07. 8:00 77% 65 km
Ortszeit Relative Feuchte Sichtweite
Mo, 06.07. 5:00 76% 40 km
Mo, 06.07. 4:30 77% 40 km
Mo, 06.07. 4:20 77% -
Mo, 06.07. 4:10 76% -
Mo, 06.07. 4:00 75% 35 km
Mo, 06.07. 3:50 75% -
Mo, 06.07. 3:30 72% 35 km
Mo, 06.07. 3:00 78% 45 km
Mo, 06.07. 2:30 77% 55 km
Mo, 06.07. 2:00 79% 60 km
Mo, 06.07. 1:30 78% 65 km
Ortszeit Niederschlagsmenge Niederschlagsart
Mo, 06.07. 2:00 0.1 l/m2 in 6 Std. Regen
So, 05.07. 20:00 0.1 l/m2 in 12 Std. Regen
So, 05.07. 14:00 0.0 l/m2 in 6 Std. -
So, 05.07. 8:00 2 l/m2 in 12 Std. Regen
So, 05.07. 2:00 0.9 l/m2 in 6 Std. Regen
Sa, 04.07. 20:00 0.0 l/m2 in 12 Std. -
Sa, 04.07. 14:00 0.0 l/m2 in 6 Std. -
Sa, 04.07. 8:00 0.0 l/m2 in 12 Std. -
Ortszeit Niederschlagsmenge Niederschlagsart
Mo, 06.07. 5:00 0.0 l/m2 in 1 Std. -
Mo, 06.07. 4:30 0.0 l/m2 in 1 Std. -
Mo, 06.07. 4:20 keine Meldung -
Mo, 06.07. 4:10 keine Meldung -
Mo, 06.07. 4:00 0.0 l/m2 in 1 Std. -
Mo, 06.07. 3:50 keine Meldung -
Mo, 06.07. 3:30 0.0 l/m2 in 1 Std. -
Mo, 06.07. 3:00 0.0 l/m2 in 1 Std. -
Mo, 06.07. 2:30 0.0 l/m2 in 1 Std. -
Mo, 06.07. 2:00 0.0 l/m2 in 1 Std. Regen
Mo, 06.07. 1:30 0.0 l/m2 in 1 Std. -
Ortszeit Stärke Spitze Richtung
km/h Bft. km/h Grad Sektor
Mo, 06.07. 2:00 11 2 40 320° NW
So, 05.07. 20:00 20 4 50 310° NW
So, 05.07. 14:00 30 5 48 310° NW
So, 05.07. 8:00 19 3 35 310° NW
So, 05.07. 2:00 15 3 46 310° NW
Sa, 04.07. 20:00 18 3 47 310° NW
Sa, 04.07. 14:00 18 3 47 310° NW
Sa, 04.07. 8:00 14 3 22 310° NW
Ortszeit Stärke Spitze Richtung
km/h Bft. km/h Grad Sektor
Mo, 06.07. 5:00 13 3 31 320° NW
Mo, 06.07. 4:30 13 3 24 320° NW
Mo, 06.07. 4:20 13 3 - 320° NW
Mo, 06.07. 4:10 13 3 - 320° NW
Mo, 06.07. 4:00 11 2 36 320° NW
Mo, 06.07. 3:50 11 2 - 320° NW
Mo, 06.07. 3:30 14 3 36 320° NW
Mo, 06.07. 3:00 13 3 41 320° NW
Mo, 06.07. 2:30 20 4 41 320° NW
Mo, 06.07. 2:00 11 2 36 320° NW
Mo, 06.07. 1:30 18 3 36 320° NW
Ortszeit Untergrenze Bedeckung Gattung
total tief tief mittel hoch
Mo, 06.07. 2:00 540 m 8/8 8/8 - - -
So, 05.07. 20:00 810 m 7/8 7/8 - - -
So, 05.07. 14:00 750 m 6/8 6/8 - - -
So, 05.07. 8:00 330 m 8/8 8/8 - - -
So, 05.07. 2:00 180 m 8/8 8/8 - - -
Sa, 04.07. 20:00 990 m 7/8 7/8 - - -
Sa, 04.07. 14:00 1170 m 8/8 8/8 - - -
Sa, 04.07. 8:00 4200 m 8/8 8/8 - - -
Ortszeit Bedeckungsgrad in Achtel und Wolkenuntergrenze
Mo, 06.07. 5:00 7(570m) 7(1020m)
Mo, 06.07. 4:30 3(630m) 4(990m)
Mo, 06.07. 4:20 3(630m) 4(990m)
Mo, 06.07. 4:10 keine Wolken
Mo, 06.07. 4:00 keine Wolken
Mo, 06.07. 3:50 keine Wolken
Mo, 06.07. 3:30 1(660m) 4(810m)
Mo, 06.07. 3:00 3(600m) 5(750m)
Mo, 06.07. 2:30 5(510m) 7(1290m) 7(1500m)
Mo, 06.07. 2:00 5(540m) 7(720m) 8(1050m)
Mo, 06.07. 1:30 3(660m) 4(900m) 6(930m)
Ortszeit Luftdruck NN (hPa) Tendenz (hPa in 3 Std.)
Mo, 06.07. 2:00 1012 - 0,1
So, 05.07. 20:00 1011 - 0,5
So, 05.07. 14:00 1012 - 0,7
So, 05.07. 8:00 1013 - 0,2
So, 05.07. 2:00 1015 - 0,6
Sa, 04.07. 20:00 1015 - 0,4
Sa, 04.07. 14:00 1016 - 0,4
Sa, 04.07. 8:00 1018 0,0
Ortszeit Luftdruck NN (hPa) Tendenz (hPa in 3 Std.)
Mo, 06.07. 5:00 1014 + 0,6
Mo, 06.07. 4:30 1014 + 0,3
Mo, 06.07. 4:20 1014 keine Meldung
Mo, 06.07. 4:10 1014 keine Meldung
Mo, 06.07. 4:00 1014 + 0,4
Mo, 06.07. 3:50 1014 keine Meldung
Mo, 06.07. 3:30 1014 + 0,7
Mo, 06.07. 3:00 1013 + 0,7
Mo, 06.07. 2:30 1013 + 0,6
Mo, 06.07. 2:00 1012 - 0,1
Mo, 06.07. 1:30 1012 - 0,1
Ortszeit Schneehöhe (cm)
Mo, 06.07. 2:00 -
So, 05.07. 20:00 -
So, 05.07. 14:00 -
So, 05.07. 8:00 -
So, 05.07. 2:00 -
Sa, 04.07. 20:00 -
Sa, 04.07. 14:00 -
Sa, 04.07. 8:00 -
Ortszeit Schneehöhe (cm)
Mo, 06.07. 5:00 -
Mo, 06.07. 4:30 -
Mo, 06.07. 4:20 -
Mo, 06.07. 4:10 -
Mo, 06.07. 4:00 -
Mo, 06.07. 3:50 -
Mo, 06.07. 3:30 -
Mo, 06.07. 3:00 -
Mo, 06.07. 2:30 -
Mo, 06.07. 2:00 -
Mo, 06.07. 1:30 -
Link zu dieser Seite / Seite empfehlen

Das Wetter in ...